sensor_id;sensor_type;location;lat;lon;timestamp;pressure;altitude;pressure_sealevel;temperature
69435;BMP180;56625;54.322;18.582;2023-08-24T00:01:51;101016.20;;;18.20
69435;BMP180;56625;54.322;18.582;2023-08-24T00:04:17;101022.40;;;18.20
69435;BMP180;56625;54.322;18.582;2023-08-24T00:06:44;101026.60;;;18.20
69435;BMP180;56625;54.322;18.582;2023-08-24T00:09:10;101027.80;;;18.20
69435;BMP180;56625;54.322;18.582;2023-08-24T00:11:37;101028.20;;;18.20
69435;BMP180;56625;54.322;18.582;2023-08-24T00:14:04;101025.60;;;18.18
69435;BMP180;56625;54.322;18.582;2023-08-24T00:16:30;101026.40;;;18.10
69435;BMP180;56625;54.322;18.582;2023-08-24T00:18:58;101021.40;;;18.10
69435;BMP180;56625;54.322;18.582;2023-08-24T00:21:24;101018.20;;;18.10
69435;BMP180;56625;54.322;18.582;2023-08-24T00:23:51;101017.00;;;18.10
69435;BMP180;56625;54.322;18.582;2023-08-24T00:26:19;101013.40;;;18.10
69435;BMP180;56625;54.322;18.582;2023-08-24T00:28:46;101009.20;;;18.10
69435;BMP180;56625;54.322;18.582;2023-08-24T00:31:15;101011.80;;;18.10
69435;BMP180;56625;54.322;18.582;2023-08-24T00:33:43;101013.40;;;18.10
69435;BMP180;56625;54.322;18.582;2023-08-24T00:36:09;101012.40;;;18.10
69435;BMP180;56625;54.322;18.582;2023-08-24T00:38:36;101012.40;;;18.10
69435;BMP180;56625;54.322;18.582;2023-08-24T00:41:03;101011.60;;;18.00
69435;BMP180;56625;54.322;18.582;2023-08-24T00:43:30;101009.20;;;18.00
69435;BMP180;56625;54.322;18.582;2023-08-24T00:46:00;101003.20;;;18.00
69435;BMP180;56625;54.322;18.582;2023-08-24T00:48:28;101007.20;;;18.00
69435;BMP180;56625;54.322;18.582;2023-08-24T00:51:01;101005.60;;;18.00
69435;BMP180;56625;54.322;18.582;2023-08-24T00:53:30;101008.40;;;18.00
69435;BMP180;56625;54.322;18.582;2023-08-24T00:55:58;101007.40;;;17.90
69435;BMP180;56625;54.322;18.582;2023-08-24T00:58:27;101000.20;;;17.90
69435;BMP180;56625;54.322;18.582;2023-08-24T01:00:55;100995.00;;;17.90
69435;BMP180;56625;54.322;18.582;2023-08-24T01:03:24;100990.60;;;17.90
69435;BMP180;56625;54.322;18.582;2023-08-24T01:05:51;100990.20;;;17.90
69435;BMP180;56625;54.322;18.582;2023-08-24T01:08:20;100991.80;;;17.90
69435;BMP180;56625;54.322;18.582;2023-08-24T01:11:19;100993.80;;;17.90
69435;BMP180;56625;54.322;18.582;2023-08-24T01:14:30;100990.60;;;17.90
69435;BMP180;56625;54.322;18.582;2023-08-24T01:16:51;100982.80;;;17.90
69435;BMP180;56625;54.322;18.582;2023-08-24T01:19:37;100978.00;;;17.80
69435;BMP180;56625;54.322;18.582;2023-08-24T01:25:23;100979.60;;;17.80
69435;BMP180;56625;54.322;18.582;2023-08-24T01:27:51;100977.20;;;17.80
69435;BMP180;56625;54.322;18.582;2023-08-24T01:30:19;100978.00;;;17.80
69435;BMP180;56625;54.322;18.582;2023-08-24T01:32:46;100975.80;;;17.80
69435;BMP180;56625;54.322;18.582;2023-08-24T01:35:13;100977.40;;;17.82
69435;BMP180;56625;54.322;18.582;2023-08-24T01:37:39;100977.00;;;17.82
69435;BMP180;56625;54.322;18.582;2023-08-24T01:40:10;100975.20;;;17.88
69435;BMP180;56625;54.322;18.582;2023-08-24T01:42:51;100973.20;;;17.88
69435;BMP180;56625;54.322;18.582;2023-08-24T01:45:27;100974.20;;;17.90
69435;BMP180;56625;54.322;18.582;2023-08-24T01:47:57;100978.60;;;17.88
69435;BMP180;56625;54.322;18.582;2023-08-24T01:50:25;100977.20;;;17.86
69435;BMP180;56625;54.322;18.582;2023-08-24T01:52:52;100981.80;;;17.88
69435;BMP180;56625;54.322;18.582;2023-08-24T01:55:19;100981.00;;;17.88
69435;BMP180;56625;54.322;18.582;2023-08-24T01:57:48;100985.20;;;17.86
69435;BMP180;56625;54.322;18.582;2023-08-24T02:00:15;100987.60;;;17.80
69435;BMP180;56625;54.322;18.582;2023-08-24T02:02:44;100988.80;;;17.80
69435;BMP180;56625;54.322;18.582;2023-08-24T02:05:11;100989.00;;;17.82
69435;BMP180;56625;54.322;18.582;2023-08-24T02:07:39;100990.60;;;17.86
69435;BMP180;56625;54.322;18.582;2023-08-24T02:10:07;100989.00;;;17.86
69435;BMP180;56625;54.322;18.582;2023-08-24T02:12:34;100989.40;;;17.84
69435;BMP180;56625;54.322;18.582;2023-08-24T02:15:00;100987.20;;;17.80
69435;BMP180;56625;54.322;18.582;2023-08-24T02:17:27;100987.60;;;17.80
69435;BMP180;56625;54.322;18.582;2023-08-24T02:19:55;100991.80;;;17.80
69435;BMP180;56625;54.322;18.582;2023-08-24T02:22:22;100987.60;;;17.80
69435;BMP180;56625;54.322;18.582;2023-08-24T02:24:48;100991.00;;;17.80
69435;BMP180;56625;54.322;18.582;2023-08-24T02:27:14;100987.20;;;17.80
69435;BMP180;56625;54.322;18.582;2023-08-24T02:29:41;100989.00;;;17.80
69435;BMP180;56625;54.322;18.582;2023-08-24T02:32:08;100992.80;;;17.80
69435;BMP180;56625;54.322;18.582;2023-08-24T02:34:34;100988.80;;;17.80
69435;BMP180;56625;54.322;18.582;2023-08-24T02:37:01;100984.80;;;17.80
69435;BMP180;56625;54.322;18.582;2023-08-24T02:39:27;100992.40;;;17.72
69435;BMP180;56625;54.322;18.582;2023-08-24T02:41:54;100993.00;;;17.70
69435;BMP180;56625;54.322;18.582;2023-08-24T02:44:20;100990.00;;;17.70
69435;BMP180;56625;54.322;18.582;2023-08-24T02:46:48;100993.60;;;17.70
69435;BMP180;56625;54.322;18.582;2023-08-24T02:49:15;100989.00;;;17.70
69435;BMP180;56625;54.322;18.582;2023-08-24T02:51:41;100989.60;;;17.70
69435;BMP180;56625;54.322;18.582;2023-08-24T02:54:08;100991.20;;;17.70
69435;BMP180;56625;54.322;18.582;2023-08-24T02:56:34;100989.40;;;17.70
69435;BMP180;56625;54.322;18.582;2023-08-24T02:59:01;100985.20;;;17.70
69435;BMP180;56625;54.322;18.582;2023-08-24T03:01:27;100984.00;;;17.70
69435;BMP180;56625;54.322;18.582;2023-08-24T03:03:54;100984.40;;;17.70
69435;BMP180;56625;54.322;18.582;2023-08-24T03:06:21;100983.80;;;17.70
69435;BMP180;56625;54.322;18.582;2023-08-24T03:08:50;100983.80;;;17.66
69435;BMP180;56625;54.322;18.582;2023-08-24T03:11:16;100983.20;;;17.64
69435;BMP180;56625;54.322;18.582;2023-08-24T03:13:43;100982.80;;;17.60
69435;BMP180;56625;54.322;18.582;2023-08-24T03:16:09;100985.60;;;17.60
69435;BMP180;56625;54.322;18.582;2023-08-24T03:18:36;100982.80;;;17.60
69435;BMP180;56625;54.322;18.582;2023-08-24T03:21:03;100980.60;;;17.60
69435;BMP180;56625;54.322;18.582;2023-08-24T03:23:29;100985.20;;;17.60
69435;BMP180;56625;54.322;18.582;2023-08-24T03:25:57;100982.60;;;17.58
69435;BMP180;56625;54.322;18.582;2023-08-24T03:28:24;100989.80;;;17.52
69435;BMP180;56625;54.322;18.582;2023-08-24T03:30:52;100989.20;;;17.50
69435;BMP180;56625;54.322;18.582;2023-08-24T03:33:22;100989.60;;;17.50
69435;BMP180;56625;54.322;18.582;2023-08-24T03:35:48;100988.40;;;17.50
69435;BMP180;56625;54.322;18.582;2023-08-24T03:38:16;100988.40;;;17.50
69435;BMP180;56625;54.322;18.582;2023-08-24T03:40:42;100985.00;;;17.50
69435;BMP180;56625;54.322;18.582;2023-08-24T03:43:09;100982.40;;;17.50
69435;BMP180;56625;54.322;18.582;2023-08-24T03:45:35;100980.60;;;17.50
69435;BMP180;56625;54.322;18.582;2023-08-24T03:48:02;100980.80;;;17.50
69435;BMP180;56625;54.322;18.582;2023-08-24T03:50:29;100983.60;;;17.50
69435;BMP180;56625;54.322;18.582;2023-08-24T03:52:55;100985.20;;;17.50
69435;BMP180;56625;54.322;18.582;2023-08-24T03:55:23;100988.60;;;17.50
69435;BMP180;56625;54.322;18.582;2023-08-24T03:57:49;100986.00;;;17.50
69435;BMP180;56625;54.322;18.582;2023-08-24T04:00:19;100984.00;;;17.50
69435;BMP180;56625;54.322;18.582;2023-08-24T04:02:46;100984.20;;;17.50
69435;BMP180;56625;54.322;18.582;2023-08-24T04:05:14;100979.80;;;17.50
69435;BMP180;56625;54.322;18.582;2023-08-24T04:07:41;100980.60;;;17.50
69435;BMP180;56625;54.322;18.582;2023-08-24T04:10:08;100977.80;;;17.50
69435;BMP180;56625;54.322;18.582;2023-08-24T04:12:36;100978.00;;;17.50
69435;BMP180;56625;54.322;18.582;2023-08-24T04:15:03;100980.20;;;17.50
69435;BMP180;56625;54.322;18.582;2023-08-24T04:17:31;100982.60;;;17.50
69435;BMP180;56625;54.322;18.582;2023-08-24T04:19:57;100983.60;;;17.50
69435;BMP180;56625;54.322;18.582;2023-08-24T04:22:24;100987.40;;;17.56
69435;BMP180;56625;54.322;18.582;2023-08-24T04:24:50;100983.80;;;17.58
69435;BMP180;56625;54.322;18.582;2023-08-24T04:27:17;100983.40;;;17.60
69435;BMP180;56625;54.322;18.582;2023-08-24T04:29:44;100982.00;;;17.68
69435;BMP180;56625;54.322;18.582;2023-08-24T04:32:10;100980.20;;;17.90
69435;BMP180;56625;54.322;18.582;2023-08-24T04:34:37;100982.60;;;18.10
69435;BMP180;56625;54.322;18.582;2023-08-24T04:37:03;100977.40;;;18.30
69435;BMP180;56625;54.322;18.582;2023-08-24T04:39:30;100976.40;;;18.50
69435;BMP180;56625;54.322;18.582;2023-08-24T04:41:57;100978.00;;;18.60
69435;BMP180;56625;54.322;18.582;2023-08-24T04:44:24;100979.00;;;18.62
69435;BMP180;56625;54.322;18.582;2023-08-24T04:46:51;100978.60;;;18.60
69435;BMP180;56625;54.322;18.582;2023-08-24T04:49:17;100980.00;;;18.54
69435;BMP180;56625;54.322;18.582;2023-08-24T04:51:44;100982.80;;;18.50
69435;BMP180;56625;54.322;18.582;2023-08-24T04:54:11;100972.80;;;18.40
69435;BMP180;56625;54.322;18.582;2023-08-24T04:56:37;100981.20;;;18.36
69435;BMP180;56625;54.322;18.582;2023-08-24T04:59:04;100979.60;;;18.30
69435;BMP180;56625;54.322;18.582;2023-08-24T05:01:30;100980.40;;;18.30
69435;BMP180;56625;54.322;18.582;2023-08-24T05:03:58;100984.60;;;18.30
69435;BMP180;56625;54.322;18.582;2023-08-24T05:06:24;100983.60;;;18.30
69435;BMP180;56625;54.322;18.582;2023-08-24T05:08:51;100986.00;;;18.30
69435;BMP180;56625;54.322;18.582;2023-08-24T05:11:22;100984.40;;;18.32
69435;BMP180;56625;54.322;18.582;2023-08-24T05:13:50;100981.60;;;18.30
69435;BMP180;56625;54.322;18.582;2023-08-24T05:16:17;100984.00;;;18.30
69435;BMP180;56625;54.322;18.582;2023-08-24T05:18:43;100984.60;;;18.30
69435;BMP180;56625;54.322;18.582;2023-08-24T05:21:10;100988.20;;;18.30
69435;BMP180;56625;54.322;18.582;2023-08-24T05:23:37;100988.60;;;18.30
69435;BMP180;56625;54.322;18.582;2023-08-24T05:26:03;100991.00;;;18.22
69435;BMP180;56625;54.322;18.582;2023-08-24T05:28:31;100990.00;;;18.20
69435;BMP180;56625;54.322;18.582;2023-08-24T05:30:58;100991.40;;;18.20
69435;BMP180;56625;54.322;18.582;2023-08-24T05:33:26;100993.20;;;18.20
69435;BMP180;56625;54.322;18.582;2023-08-24T05:35:53;100997.20;;;18.20
69435;BMP180;56625;54.322;18.582;2023-08-24T05:38:19;100998.40;;;18.20
69435;BMP180;56625;54.322;18.582;2023-08-24T05:40:50;100994.00;;;18.20
69435;BMP180;56625;54.322;18.582;2023-08-24T05:43:16;101000.80;;;18.28
69435;BMP180;56625;54.322;18.582;2023-08-24T05:45:43;100997.40;;;18.28
69435;BMP180;56625;54.322;18.582;2023-08-24T05:48:11;101001.20;;;18.30
69435;BMP180;56625;54.322;18.582;2023-08-24T05:50:46;100996.20;;;18.30
69435;BMP180;56625;54.322;18.582;2023-08-24T05:53:13;101000.80;;;18.32
69435;BMP180;56625;54.322;18.582;2023-08-24T05:55:40;101000.60;;;18.38
69435;BMP180;56625;54.322;18.582;2023-08-24T05:58:08;100996.00;;;18.40
69435;BMP180;56625;54.322;18.582;2023-08-24T06:00:35;100994.80;;;18.40
69435;BMP180;56625;54.322;18.582;2023-08-24T06:03:02;100998.00;;;18.40
69435;BMP180;56625;54.322;18.582;2023-08-24T06:05:30;100999.40;;;18.40
69435;BMP180;56625;54.322;18.582;2023-08-24T06:07:57;101002.20;;;18.50
69435;BMP180;56625;54.322;18.582;2023-08-24T06:10:24;100998.00;;;18.50
69435;BMP180;56625;54.322;18.582;2023-08-24T06:12:53;100995.60;;;18.52
69435;BMP180;56625;54.322;18.582;2023-08-24T06:15:19;100991.40;;;18.60
69435;BMP180;56625;54.322;18.582;2023-08-24T06:17:50;100989.20;;;18.60
69435;BMP180;56625;54.322;18.582;2023-08-24T06:20:17;100990.00;;;18.70
69435;BMP180;56625;54.322;18.582;2023-08-24T06:22:44;100985.40;;;18.70
69435;BMP180;56625;54.322;18.582;2023-08-24T06:25:11;100987.20;;;18.80
69435;BMP180;56625;54.322;18.582;2023-08-24T06:27:38;100988.00;;;18.90
69435;BMP180;56625;54.322;18.582;2023-08-24T06:30:05;100985.20;;;19.00
69435;BMP180;56625;54.322;18.582;2023-08-24T06:32:33;100984.00;;;19.10
69435;BMP180;56625;54.322;18.582;2023-08-24T06:35:00;100978.80;;;19.10
69435;BMP180;56625;54.322;18.582;2023-08-24T06:37:26;100983.60;;;19.20
69435;BMP180;56625;54.322;18.582;2023-08-24T06:39:53;100978.80;;;19.20
69435;BMP180;56625;54.322;18.582;2023-08-24T06:42:20;100986.00;;;19.22
69435;BMP180;56625;54.322;18.582;2023-08-24T06:44:47;100991.00;;;19.30
69435;BMP180;56625;54.322;18.582;2023-08-24T06:47:17;100990.60;;;19.30
69435;BMP180;56625;54.322;18.582;2023-08-24T06:49:43;100990.20;;;19.30
69435;BMP180;56625;54.322;18.582;2023-08-24T06:52:10;100989.00;;;19.40
69435;BMP180;56625;54.322;18.582;2023-08-24T06:54:37;100988.80;;;19.46
69435;BMP180;56625;54.322;18.582;2023-08-24T06:57:04;100983.60;;;19.50
69435;BMP180;56625;54.322;18.582;2023-08-24T06:59:30;100988.00;;;19.54
69435;BMP180;56625;54.322;18.582;2023-08-24T07:01:57;100985.00;;;19.60
69435;BMP180;56625;54.322;18.582;2023-08-24T07:04:26;100984.60;;;19.68
69435;BMP180;56625;54.322;18.582;2023-08-24T07:06:53;100983.60;;;19.74
69435;BMP180;56625;54.322;18.582;2023-08-24T07:09:20;100981.20;;;19.90
69435;BMP180;56625;54.322;18.582;2023-08-24T07:11:48;100982.20;;;19.96
69435;BMP180;56625;54.322;18.582;2023-08-24T07:14:15;100986.60;;;20.00
69435;BMP180;56625;54.322;18.582;2023-08-24T07:16:41;100986.80;;;20.10
69435;BMP180;56625;54.322;18.582;2023-08-24T07:19:09;100988.40;;;20.10
69435;BMP180;56625;54.322;18.582;2023-08-24T07:21:35;100990.40;;;20.12
69435;BMP180;56625;54.322;18.582;2023-08-24T07:24:02;100993.80;;;20.24
69435;BMP180;56625;54.322;18.582;2023-08-24T07:26:29;100989.20;;;20.46
69435;BMP180;56625;54.322;18.582;2023-08-24T07:28:57;100991.20;;;20.70
69435;BMP180;56625;54.322;18.582;2023-08-24T07:31:24;100990.40;;;20.90
69435;BMP180;56625;54.322;18.582;2023-08-24T07:33:50;100995.80;;;21.00
69435;BMP180;56625;54.322;18.582;2023-08-24T07:36:17;100995.00;;;21.10
69435;BMP180;56625;54.322;18.582;2023-08-24T07:38:45;100994.20;;;21.20
69435;BMP180;56625;54.322;18.582;2023-08-24T07:41:13;101001.60;;;21.30
69435;BMP180;56625;54.322;18.582;2023-08-24T07:43:40;100999.20;;;21.40
69435;BMP180;56625;54.322;18.582;2023-08-24T07:46:07;100998.80;;;21.60
69435;BMP180;56625;54.322;18.582;2023-08-24T07:48:36;100999.40;;;21.60
69435;BMP180;56625;54.322;18.582;2023-08-24T07:51:02;101002.00;;;21.68
69435;BMP180;56625;54.322;18.582;2023-08-24T07:53:29;101007.20;;;21.78
69435;BMP180;56625;54.322;18.582;2023-08-24T07:55:56;101007.60;;;21.70
69435;BMP180;56625;54.322;18.582;2023-08-24T07:58:25;101011.40;;;21.78
69435;BMP180;56625;54.322;18.582;2023-08-24T08:00:52;101007.20;;;21.80
69435;BMP180;56625;54.322;18.582;2023-08-24T08:03:19;101010.60;;;21.90
69435;BMP180;56625;54.322;18.582;2023-08-24T08:05:47;101009.60;;;21.90
69435;BMP180;56625;54.322;18.582;2023-08-24T08:08:14;101014.00;;;21.80
69435;BMP180;56625;54.322;18.582;2023-08-24T08:10:42;101018.20;;;21.80
69435;BMP180;56625;54.322;18.582;2023-08-24T08:13:09;101021.20;;;21.70
69435;BMP180;56625;54.322;18.582;2023-08-24T08:15:39;101025.40;;;21.80
69435;BMP180;56625;54.322;18.582;2023-08-24T08:18:06;101021.80;;;21.98
69435;BMP180;56625;54.322;18.582;2023-08-24T08:20:33;101019.60;;;22.14
69435;BMP180;56625;54.322;18.582;2023-08-24T08:23:00;101019.80;;;22.40
69435;BMP180;56625;54.322;18.582;2023-08-24T08:25:27;101012.80;;;22.68
69435;BMP180;56625;54.322;18.582;2023-08-24T08:27:54;101021.20;;;23.00
69435;BMP180;56625;54.322;18.582;2023-08-24T08:30:21;101015.40;;;23.30
69435;BMP180;56625;54.322;18.582;2023-08-24T08:32:50;101005.40;;;23.50
69435;BMP180;56625;54.322;18.582;2023-08-24T08:35:19;101004.00;;;23.66
69435;BMP180;56625;54.322;18.582;2023-08-24T08:37:46;101007.80;;;23.76
69435;BMP180;56625;54.322;18.582;2023-08-24T08:40:13;101016.00;;;23.60
69435;BMP180;56625;54.322;18.582;2023-08-24T08:42:40;101017.20;;;23.30
69435;BMP180;56625;54.322;18.582;2023-08-24T08:45:10;101017.80;;;23.10
69435;BMP180;56625;54.322;18.582;2023-08-24T08:47:38;101018.60;;;23.00
69435;BMP180;56625;54.322;18.582;2023-08-24T08:50:08;101018.40;;;22.90
69435;BMP180;56625;54.322;18.582;2023-08-24T08:52:35;101017.00;;;22.70
69435;BMP180;56625;54.322;18.582;2023-08-24T08:55:02;101019.20;;;22.60
69435;BMP180;56625;54.322;18.582;2023-08-24T08:57:33;101016.20;;;22.42
69435;BMP180;56625;54.322;18.582;2023-08-24T09:00:00;101019.00;;;22.40
69435;BMP180;56625;54.322;18.582;2023-08-24T09:02:28;101014.20;;;22.60
69435;BMP180;56625;54.322;18.582;2023-08-24T09:04:56;101012.20;;;22.98
69435;BMP180;56625;54.322;18.582;2023-08-24T09:07:23;101015.80;;;23.30
69435;BMP180;56625;54.322;18.582;2023-08-24T09:09:50;101010.00;;;23.50
69435;BMP180;56625;54.322;18.582;2023-08-24T09:12:17;101019.00;;;23.80
69435;BMP180;56625;54.322;18.582;2023-08-24T09:14:43;101016.40;;;23.82
69435;BMP180;56625;54.322;18.582;2023-08-24T09:17:10;101013.60;;;24.00
69435;BMP180;56625;54.322;18.582;2023-08-24T09:19:36;101005.60;;;24.00
69435;BMP180;56625;54.322;18.582;2023-08-24T09:22:05;101002.80;;;24.06
69435;BMP180;56625;54.322;18.582;2023-08-24T09:24:35;101004.40;;;24.14
69435;BMP180;56625;54.322;18.582;2023-08-24T09:27:15;100999.80;;;24.34
69435;BMP180;56625;54.322;18.582;2023-08-24T09:29:43;101000.20;;;24.60
69435;BMP180;56625;54.322;18.582;2023-08-24T09:32:13;101000.80;;;24.60
69435;BMP180;56625;54.322;18.582;2023-08-24T09:34:40;101001.40;;;24.90
69435;BMP180;56625;54.322;18.582;2023-08-24T09:37:14;100998.20;;;24.80
69435;BMP180;56625;54.322;18.582;2023-08-24T09:39:44;100994.40;;;24.70
69435;BMP180;56625;54.322;18.582;2023-08-24T09:42:12;100997.20;;;24.60
69435;BMP180;56625;54.322;18.582;2023-08-24T09:44:46;100996.20;;;24.60
69435;BMP180;56625;54.322;18.582;2023-08-24T09:47:13;100994.20;;;24.70
69435;BMP180;56625;54.322;18.582;2023-08-24T09:49:39;100991.40;;;24.90
69435;BMP180;56625;54.322;18.582;2023-08-24T09:52:08;100984.60;;;25.00
69435;BMP180;56625;54.322;18.582;2023-08-24T09:54:37;100987.80;;;25.00
69435;BMP180;56625;54.322;18.582;2023-08-24T09:57:06;100984.20;;;25.20
69435;BMP180;56625;54.322;18.582;2023-08-24T09:59:35;100981.60;;;25.40
69435;BMP180;56625;54.322;18.582;2023-08-24T10:02:02;100982.80;;;25.78
69435;BMP180;56625;54.322;18.582;2023-08-24T10:04:34;100982.00;;;26.10
69435;BMP180;56625;54.322;18.582;2023-08-24T10:07:10;100980.00;;;25.96
69435;BMP180;56625;54.322;18.582;2023-08-24T10:09:58;100976.00;;;25.90
69435;BMP180;56625;54.322;18.582;2023-08-24T10:12:28;100973.40;;;25.80
69435;BMP180;56625;54.322;18.582;2023-08-24T10:15:02;100968.80;;;25.70
69435;BMP180;56625;54.322;18.582;2023-08-24T10:17:32;100965.00;;;25.64
69435;BMP180;56625;54.322;18.582;2023-08-24T10:20:01;100961.40;;;25.70
69435;BMP180;56625;54.322;18.582;2023-08-24T10:22:34;100962.40;;;25.94
69435;BMP180;56625;54.322;18.582;2023-08-24T10:25:03;100959.20;;;26.18
69435;BMP180;56625;54.322;18.582;2023-08-24T10:27:30;100954.80;;;26.24
69435;BMP180;56625;54.322;18.582;2023-08-24T10:29:56;100946.60;;;26.34
69435;BMP180;56625;54.322;18.582;2023-08-24T10:32:26;100947.40;;;26.34
69435;BMP180;56625;54.322;18.582;2023-08-24T10:34:53;100940.80;;;26.00
69435;BMP180;56625;54.322;18.582;2023-08-24T10:37:27;100943.40;;;26.00
69435;BMP180;56625;54.322;18.582;2023-08-24T10:39:54;100942.40;;;26.10
69435;BMP180;56625;54.322;18.582;2023-08-24T10:42:21;100950.60;;;26.32
69435;BMP180;56625;54.322;18.582;2023-08-24T10:44:48;100946.20;;;26.02
69435;BMP180;56625;54.322;18.582;2023-08-24T10:47:23;100942.20;;;25.70
69435;BMP180;56625;54.322;18.582;2023-08-24T10:54:56;100939.40;;;25.32
69435;BMP180;56625;54.322;18.582;2023-08-24T10:57:34;100944.20;;;25.20
69435;BMP180;56625;54.322;18.582;2023-08-24T11:00:11;100943.00;;;25.06
69435;BMP180;56625;54.322;18.582;2023-08-24T11:05:27;100949.40;;;24.60
69435;BMP180;56625;54.322;18.582;2023-08-24T11:08:05;100953.00;;;24.62
69435;BMP180;56625;54.322;18.582;2023-08-24T11:15:47;100944.60;;;24.50
69435;BMP180;56625;54.322;18.582;2023-08-24T11:18:28;100937.60;;;24.70
69435;BMP180;56625;54.322;18.582;2023-08-24T11:21:00;100940.40;;;24.90
69435;BMP180;56625;54.322;18.582;2023-08-24T11:23:29;100940.00;;;24.90
69435;BMP180;56625;54.322;18.582;2023-08-24T11:26:00;100937.40;;;24.90
69435;BMP180;56625;54.322;18.582;2023-08-24T11:28:30;100936.40;;;24.80
69435;BMP180;56625;54.322;18.582;2023-08-24T11:30:58;100938.40;;;24.70
69435;BMP180;56625;54.322;18.582;2023-08-24T11:33:33;100933.40;;;24.80
69435;BMP180;56625;54.322;18.582;2023-08-24T11:36:03;100927.00;;;25.20
69435;BMP180;56625;54.322;18.582;2023-08-24T11:38:41;100927.40;;;25.50
69435;BMP180;56625;54.322;18.582;2023-08-24T11:41:16;100933.60;;;25.60
69435;BMP180;56625;54.322;18.582;2023-08-24T11:43:44;100927.00;;;25.40
69435;BMP180;56625;54.322;18.582;2023-08-24T11:46:12;100922.20;;;25.30
69435;BMP180;56625;54.322;18.582;2023-08-24T11:48:40;100921.60;;;25.20
69435;BMP180;56625;54.322;18.582;2023-08-24T11:51:12;100913.80;;;25.32
69435;BMP180;56625;54.322;18.582;2023-08-24T11:53:41;100915.20;;;25.64
69435;BMP180;56625;54.322;18.582;2023-08-24T11:56:10;100907.00;;;25.76
69435;BMP180;56625;54.322;18.582;2023-08-24T11:58:47;100904.20;;;25.70
69435;BMP180;56625;54.322;18.582;2023-08-24T12:01:14;100908.20;;;25.60
69435;BMP180;56625;54.322;18.582;2023-08-24T12:03:41;100913.20;;;25.70
69435;BMP180;56625;54.322;18.582;2023-08-24T12:08:40;100908.00;;;25.94
69435;BMP180;56625;54.322;18.582;2023-08-24T12:11:20;100908.20;;;25.84
69435;BMP180;56625;54.322;18.582;2023-08-24T12:13:53;100911.00;;;25.70
69435;BMP180;56625;54.322;18.582;2023-08-24T12:16:22;100909.20;;;25.80
69435;BMP180;56625;54.322;18.582;2023-08-24T12:18:53;100910.60;;;25.60
69435;BMP180;56625;54.322;18.582;2023-08-24T12:21:21;100915.80;;;25.70
69435;BMP180;56625;54.322;18.582;2023-08-24T12:24:00;100910.80;;;25.60
69435;BMP180;56625;54.322;18.582;2023-08-24T12:26:27;100910.20;;;25.70
69435;BMP180;56625;54.322;18.582;2023-08-24T12:29:07;100913.60;;;25.60
69435;BMP180;56625;54.322;18.582;2023-08-24T12:31:35;100912.20;;;25.40
69435;BMP180;56625;54.322;18.582;2023-08-24T12:34:03;100910.80;;;25.50
69435;BMP180;56625;54.322;18.582;2023-08-24T12:36:36;100914.00;;;25.68
69435;BMP180;56625;54.322;18.582;2023-08-24T12:39:04;100914.20;;;25.70
69435;BMP180;56625;54.322;18.582;2023-08-24T12:41:32;100918.60;;;25.74
69435;BMP180;56625;54.322;18.582;2023-08-24T12:43:59;100918.40;;;26.00
69435;BMP180;56625;54.322;18.582;2023-08-24T12:46:25;100903.00;;;26.28
69435;BMP180;56625;54.322;18.582;2023-08-24T12:48:53;100903.80;;;26.34
69435;BMP180;56625;54.322;18.582;2023-08-24T12:51:23;100906.00;;;26.50
69435;BMP180;56625;54.322;18.582;2023-08-24T12:53:51;100902.60;;;26.60
69435;BMP180;56625;54.322;18.582;2023-08-24T12:56:17;100904.40;;;26.60
69435;BMP180;56625;54.322;18.582;2023-08-24T12:58:44;100906.00;;;26.50
69435;BMP180;56625;54.322;18.582;2023-08-24T13:01:11;100906.00;;;26.40
69435;BMP180;56625;54.322;18.582;2023-08-24T13:03:38;100912.20;;;26.40
69435;BMP180;56625;54.322;18.582;2023-08-24T13:06:06;100924.40;;;26.20
69435;BMP180;56625;54.322;18.582;2023-08-24T13:08:53;100917.00;;;25.86
69435;BMP180;56625;54.322;18.582;2023-08-24T13:11:21;100930.40;;;25.60
69435;BMP180;56625;54.322;18.582;2023-08-24T13:13:48;100928.80;;;25.30
69435;BMP180;56625;54.322;18.582;2023-08-24T13:16:15;100937.80;;;24.80
69435;BMP180;56625;54.322;18.582;2023-08-24T13:18:42;100933.60;;;24.46
69435;BMP180;56625;54.322;18.582;2023-08-24T13:21:09;100939.20;;;24.30
69435;BMP180;56625;54.322;18.582;2023-08-24T13:23:36;100936.60;;;24.30
69435;BMP180;56625;54.322;18.582;2023-08-24T13:26:02;100937.60;;;24.30
69435;BMP180;56625;54.322;18.582;2023-08-24T13:28:29;100931.80;;;24.50
69435;BMP180;56625;54.322;18.582;2023-08-24T13:30:56;100927.20;;;24.72
69435;BMP180;56625;54.322;18.582;2023-08-24T13:33:22;100921.60;;;24.90
69435;BMP180;56625;54.322;18.582;2023-08-24T13:35:49;100926.00;;;25.00
69435;BMP180;56625;54.322;18.582;2023-08-24T13:38:16;100929.00;;;24.74
69435;BMP180;56625;54.322;18.582;2023-08-24T13:40:42;100926.40;;;24.60
69435;BMP180;56625;54.322;18.582;2023-08-24T13:43:09;100927.80;;;24.40
69435;BMP180;56625;54.322;18.582;2023-08-24T13:45:36;100931.00;;;24.20
69435;BMP180;56625;54.322;18.582;2023-08-24T13:48:03;100928.20;;;24.00
69435;BMP180;56625;54.322;18.582;2023-08-24T13:50:30;100927.20;;;23.80
69435;BMP180;56625;54.322;18.582;2023-08-24T13:52:56;100924.40;;;23.70
69435;BMP180;56625;54.322;18.582;2023-08-24T13:55:24;100914.40;;;23.60
69435;BMP180;56625;54.322;18.582;2023-08-24T13:57:51;100914.20;;;23.60
69435;BMP180;56625;54.322;18.582;2023-08-24T14:00:18;100917.40;;;23.60
69435;BMP180;56625;54.322;18.582;2023-08-24T14:02:44;100908.00;;;23.50
69435;BMP180;56625;54.322;18.582;2023-08-24T14:05:11;100905.20;;;23.66
69435;BMP180;56625;54.322;18.582;2023-08-24T14:07:41;100908.80;;;23.80
69435;BMP180;56625;54.322;18.582;2023-08-24T14:10:08;100906.40;;;23.90